Time;durP1;ratioP1;P1;durP2;ratioP2;P2;SDS_P1;SDS_P2;PMS_P1;PMS_P2;Temp;Humidity;BMP_temperature;BMP_pressure;BME280_temperature;BME280_humidity;BME280_pressure;Samples;Min_cycle;Max_cycle;Signal;HPM_P1;HPM_P2
2022/04/03 00:01:42;;;;;;;1.23;1.00;;;;;;;6.09;70.24;95395.81;5113688;28;20119;-65
2022/04/03 00:04:08;;;;;;;1.10;1.00;;;;;;;6.11;70.72;95396.59;5113547;28;20091;-65
2022/04/03 00:06:33;;;;;;;1.67;0.90;;;;;;;6.10;70.65;95394.88;5113442;28;20031;-65
2022/04/03 00:09:01;;;;;;;0.98;0.80;;;;;;;6.16;71.06;95399.84;5113626;28;20020;-65
2022/04/03 00:11:28;;;;;;;1.35;1.00;;;;;;;6.15;70.89;95393.81;5113569;28;20052;-65
2022/04/03 00:13:54;;;;;;;1.10;0.93;;;;;;;6.16;71.31;95398.09;5113443;28;20426;-65
2022/04/03 00:16:19;;;;;;;2.55;0.90;;;;;;;6.23;70.64;95396.09;5113490;28;20027;-65
2022/04/03 00:18:45;;;;;;;0.75;0.75;;;;;;;6.23;71.06;95400.47;5113584;28;20090;-65
2022/04/03 00:21:13;;;;;;;1.13;1.00;;;;;;;6.31;71.38;95396.66;5113546;28;20397;-65
2022/04/03 00:23:39;;;;;;;1.42;0.80;;;;;;;6.39;71.50;95395.50;5113393;28;20024;-65
2022/04/03 00:26:05;;;;;;;1.10;0.90;;;;;;;6.36;71.25;95404.28;5113281;28;20111;-65
2022/04/03 00:28:31;;;;;;;1.35;0.70;;;;;;;6.43;72.07;95404.88;5113430;28;20066;-65
2022/04/03 00:30:57;;;;;;;0.70;0.70;;;;;;;6.47;71.74;95395.22;5113509;28;20023;-65
2022/04/03 00:33:22;;;;;;;1.45;0.98;;;;;;;6.50;71.15;95387.31;5113457;28;20392;-65
2022/04/03 00:35:50;;;;;;;1.55;1.10;;;;;;;6.55;71.17;95385.34;5113321;28;20035;-65
2022/04/03 00:38:15;;;;;;;1.90;1.40;;;;;;;6.48;71.10;95379.56;5113275;28;20024;-65
2022/04/03 00:40:44;;;;;;;0.73;0.73;;;;;;;6.48;71.65;95376.97;5113360;28;20077;-65
2022/04/03 00:43:11;;;;;;;1.95;0.98;;;;;;;6.50;71.62;95374.31;5113227;28;20055;-65
2022/04/03 00:45:39;;;;;;;0.80;0.80;;;;;;;6.49;71.98;95376.06;5113180;28;20035;-65
2022/04/03 00:48:07;;;;;;;1.02;1.02;;;;;;;6.58;71.77;95385.22;5113152;28;20080;-65
2022/04/03 00:50:32;;;;;;;1.80;0.98;;;;;;;6.60;71.84;95380.81;5113196;28;20028;-65
2022/04/03 00:52:58;;;;;;;1.13;0.95;;;;;;;6.60;71.42;95380.81;5113141;28;20047;-65
2022/04/03 00:55:24;;;;;;;1.00;0.90;;;;;;;6.65;71.40;95380.63;5113176;28;20373;-65
2022/04/03 00:57:50;;;;;;;0.75;0.65;;;;;;;6.66;71.26;95384.91;5113213;28;20016;-65
2022/04/03 01:00:17;;;;;;;4.35;0.90;;;;;;;6.68;71.27;95383.94;5113174;28;20024;-65
2022/04/03 01:02:43;;;;;;;1.65;1.20;;;;;;;6.66;70.98;95377.97;5113015;28;20024;-65
2022/04/03 01:05:09;;;;;;;1.40;0.88;;;;;;;6.58;70.64;95382.63;5112976;28;20023;-65
2022/04/03 01:07:34;;;;;;;1.33;0.93;;;;;;;6.60;71.15;95399.00;5113016;28;20087;-65
2022/04/03 01:10:04;;;;;;;1.45;0.95;;;;;;;6.66;71.19;95392.72;5113035;28;20534;-65
2022/04/03 01:12:29;;;;;;;0.70;0.70;;;;;;;6.63;70.73;95379.84;5115229;28;20016;-65
2022/04/03 01:14:55;;;;;;;1.65;1.13;;;;;;;6.58;70.27;95382.63;5116579;28;20023;-65
2022/04/03 01:17:20;;;;;;;4.63;1.00;;;;;;;6.54;70.88;95373.28;5116633;28;20077;-65
2022/04/03 01:19:46;;;;;;;0.73;0.73;;;;;;;6.52;70.89;95378.53;5116713;28;20032;-65
2022/04/03 01:22:12;;;;;;;1.35;1.00;;;;;;;6.42;71.00;95370.25;5116579;28;20120;-65
2022/04/03 01:24:42;;;;;;;1.20;0.73;;;;;;;6.38;71.44;95370.44;5116485;28;20474;-65
2022/04/03 01:27:08;;;;;;;3.33;0.90;;;;;;;6.34;71.39;95368.84;5116506;27;20028;-65
2022/04/03 01:29:33;;;;;;;1.38;1.00;;;;;;;6.30;71.31;95368.97;5116524;28;20076;-65
2022/04/03 01:31:59;;;;;;;0.77;0.77;;;;;;;6.23;71.86;95369.31;5116459;28;20493;-65
2022/04/03 01:34:24;;;;;;;1.02;0.93;;;;;;;6.30;71.62;95355.16;5116276;28;20051;-65
2022/04/03 01:36:50;;;;;;;2.65;0.90;;;;;;;6.28;71.47;95351.78;5116270;27;20172;-65
2022/04/03 01:39:16;;;;;;;1.30;1.02;;;;;;;6.10;71.57;95342.97;5116198;28;20015;-65
2022/04/03 01:41:43;;;;;;;0.75;0.70;;;;;;;6.12;72.06;95349.81;5116038;28;20059;-65
2022/04/03 01:44:12;;;;;;;1.58;0.80;;;;;;;6.13;72.76;95353.22;5116146;28;20016;-65
2022/04/03 01:46:39;;;;;;;2.55;1.02;;;;;;;6.14;72.43;95349.75;5116053;28;20032;-65
2022/04/03 01:49:06;;;;;;;0.75;0.75;;;;;;;6.13;72.08;95351.47;5116016;28;20020;-65
2022/04/03 01:51:32;;;;;;;2.28;1.05;;;;;;;5.99;71.62;95343.38;5115950;28;20020;-65
2022/04/03 01:54:02;;;;;;;1.10;1.00;;;;;;;5.94;72.49;95349.56;5116059;28;20173;-65
2022/04/03 01:56:27;;;;;;;1.02;1.00;;;;;;;5.96;71.95;95338.28;5115917;28;20020;-65
2022/04/03 01:58:56;;;;;;;1.13;0.90;;;;;;;5.94;71.53;95338.34;5115966;28;20024;-65
2022/04/03 02:01:21;;;;;;;1.15;0.75;;;;;;;5.84;71.46;95324.88;5115830;28;20028;-65
2022/04/03 02:03:47;;;;;;;0.80;0.80;;;;;;;5.82;71.20;95326.69;5115765;28;20030;-65
2022/04/03 02:06:15;;;;;;;0.80;0.80;;;;;;;5.75;71.17;95320.88;5115642;28;20030;-65
2022/04/03 02:08:42;;;;;;;1.25;0.80;;;;;;;5.57;71.43;95318.09;5115736;27;20081;-65
2022/04/03 02:11:08;;;;;;;1.10;1.00;;;;;;;5.39;71.65;95314.41;5115549;28;20030;-65
2022/04/03 02:13:33;;;;;;;3.45;1.35;;;;;;;5.34;71.86;95310.31;5115498;28;20107;-65
2022/04/03 02:15:59;;;;;;;2.10;0.98;;;;;;;5.24;72.07;95313.22;5115479;28;20063;-65
2022/04/03 02:18:24;;;;;;;1.10;1.00;;;;;;;5.27;71.70;95320.09;5114418;28;20016;-64
2022/04/03 02:20:51;;;;;;;1.55;1.00;;;;;;;5.25;71.41;95322.72;5115549;28;20365;-64
2022/04/03 02:23:16;;;;;;;1.23;0.90;;;;;;;5.14;71.88;95317.06;5114307;27;20020;-65
2022/04/03 02:25:42;;;;;;;1.27;0.98;;;;;;;5.12;71.28;95329.25;5115378;28;20358;-65
2022/04/03 02:28:10;;;;;;;2.88;1.10;;;;;;;5.11;71.07;95319.75;5115291;27;20031;-65
2022/04/03 02:30:36;;;;;;;0.90;0.90;;;;;;;5.04;71.12;95322.59;5115245;28;20036;-65
2022/04/03 02:33:02;;;;;;;1.45;1.33;;;;;;;5.11;71.61;95330.13;5115248;28;20425;-65
2022/04/03 02:35:28;;;;;;;1.15;1.05;;;;;;;5.12;70.67;95335.25;5115207;28;20047;-64
2022/04/03 02:37:53;;;;;;;1.30;1.15;;;;;;;5.03;70.68;95336.44;5114990;28;20040;-65
2022/04/03 02:40:22;;;;;;;2.08;1.00;;;;;;;4.94;70.77;95336.78;5115137;28;20032;-65
2022/04/03 02:42:48;;;;;;;2.08;1.10;;;;;;;4.95;70.94;95345.38;5113487;28;20409;-64
2022/04/03 02:45:15;;;;;;;1.05;0.93;;;;;;;4.92;71.13;95357.56;5114941;28;20019;-65
2022/04/03 02:47:48;;;;;;;3.75;1.00;;;;;;;4.84;71.17;95354.38;5114790;28;20027;-65
2022/04/03 02:50:16;;;;;;;1.73;1.10;;;;;;;4.82;71.39;95360.53;5114807;28;20403;-65
2022/04/03 02:52:41;;;;;;;3.75;0.90;;;;;;;4.87;71.18;95358.59;5114793;28;20024;-65
2022/04/03 02:55:07;;;;;;;2.42;1.02;;;;;;;4.83;70.13;95363.06;5114825;28;20038;-65
2022/04/03 02:57:33;;;;;;;2.60;1.10;;;;;;;4.75;70.09;95362.47;5114719;28;20056;-65
2022/04/03 02:59:59;;;;;;;1.50;0.90;;;;;;;4.55;70.14;95354.47;5114767;28;20051;-65
2022/04/03 03:02:24;;;;;;;3.05;1.00;;;;;;;4.42;70.65;95363.53;5114576;28;20098;-65
2022/04/03 03:04:50;;;;;;;1.35;0.90;;;;;;;4.37;70.47;95371.44;5114605;28;20028;-65
2022/04/03 03:07:16;;;;;;;0.80;0.70;;;;;;;4.36;70.77;95364.56;5114567;28;20023;-65
2022/04/03 03:09:42;;;;;;;2.03;1.35;;;;;;;4.28;70.70;95358.81;5114468;28;20055;-65
2022/04/03 03:12:10;;;;;;;0.90;0.88;;;;;;;4.24;71.16;95373.56;5114399;28;20047;-65
2022/04/03 03:14:36;;;;;;;1.63;0.73;;;;;;;4.13;71.30;95363.56;5114360;28;20095;-65
2022/04/03 03:17:01;;;;;;;1.75;0.88;;;;;;;3.97;72.24;95367.53;5114390;28;20051;-65
2022/04/03 03:19:27;;;;;;;1.63;1.10;;;;;;;3.89;71.82;95368.59;5114218;28;20023;-65
2022/04/03 03:21:53;;;;;;;1.48;1.00;;;;;;;3.91;71.55;95365.97;5114306;28;20110;-65
2022/04/03 03:24:18;;;;;;;5.18;1.20;;;;;;;3.85;71.35;95366.16;5114127;28;20027;-65
2022/04/03 03:26:44;;;;;;;1.20;0.90;;;;;;;3.83;71.17;95366.22;5114121;28;20039;-65
2022/04/03 03:29:09;;;;;;;1.70;1.17;;;;;;;3.77;71.36;95363.81;5114171;28;20373;-64
2022/04/03 03:31:36;;;;;;;2.20;1.15;;;;;;;3.75;71.15;95368.16;5114184;28;20016;-65
2022/04/03 03:34:01;;;;;;;1.67;1.45;;;;;;;3.69;71.43;95365.75;5113940;28;20031;-65
2022/04/03 03:36:27;;;;;;;1.20;1.00;;;;;;;3.62;71.24;95370.28;5113941;28;20016;-65
2022/04/03 03:38:54;;;;;;;2.55;1.40;;;;;;;3.57;71.56;95373.00;5113923;28;20062;-65
2022/04/03 03:41:22;;;;;;;2.03;1.10;;;;;;;3.60;71.44;95372.03;5113739;28;20044;-65
2022/04/03 03:43:48;;;;;;;0.90;0.90;;;;;;;3.57;71.54;95374.72;5114004;27;20057;-64
2022/04/03 03:46:14;;;;;;;1.33;0.95;;;;;;;3.56;71.67;95371.31;5113798;28;20023;-65
2022/04/03 03:48:39;;;;;;;2.55;1.30;;;;;;;3.61;71.73;95378.94;5113776;28;20115;-65
2022/04/03 03:51:05;;;;;;;1.25;1.02;;;;;;;3.51;71.49;95380.91;5113835;28;20486;-65
2022/04/03 03:53:31;;;;;;;1.58;1.15;;;;;;;3.43;72.46;95375.13;5113794;28;20019;-65
2022/04/03 03:55:57;;;;;;;1.88;1.00;;;;;;;3.45;72.66;95379.34;5113793;28;20019;-65
2022/04/03 03:58:24;;;;;;;3.63;0.90;;;;;;;3.52;72.46;95380.00;5113606;28;20031;-65
2022/04/03 04:00:50;;;;;;;1.85;1.10;;;;;;;3.45;72.56;95369.03;5113608;28;20027;-65
2022/04/03 04:03:16;;;;;;;1.42;1.10;;;;;;;3.51;72.52;95373.16;5113642;28;20030;-65
2022/04/03 04:05:45;;;;;;;5.82;1.17;;;;;;;3.56;72.54;95383.38;5113502;28;20027;-65
2022/04/03 04:08:10;;;;;;;9.88;1.40;;;;;;;3.61;72.84;95391.88;5113577;28;20100;-65
2022/04/03 04:10:36;;;;;;;0.88;0.82;;;;;;;3.60;72.18;95393.59;5113641;28;20477;-65
2022/04/03 04:13:03;;;;;;;1.00;0.90;;;;;;;3.57;72.88;95392.81;5112243;28;20052;-65
2022/04/03 04:15:30;;;;;;;2.97;1.27;;;;;;;3.57;73.18;95390.22;5113474;28;20489;-64
2022/04/03 04:17:56;;;;;;;1.13;1.02;;;;;;;3.63;73.48;95387.47;5113570;28;20427;-64
2022/04/03 04:20:23;;;;;;;2.28;1.20;;;;;;;3.57;73.45;95392.81;5113489;28;20023;-65
2022/04/03 04:22:53;;;;;;;2.20;1.38;;;;;;;3.61;74.04;95394.44;5113430;28;20358;-65
2022/04/03 04:25:21;;;;;;;1.70;1.13;;;;;;;3.69;73.58;95396.78;5113362;28;20055;-65
2022/04/03 04:27:47;;;;;;;3.15;1.30;;;;;;;3.79;73.57;95390.47;5113399;28;20027;-65
2022/04/03 04:30:14;;;;;;;3.05;1.13;;;;;;;3.84;73.68;95401.53;5113305;28;20507;-65
2022/04/03 04:32:41;;;;;;;2.47;0.95;;;;;;;3.95;74.19;95405.53;5113473;28;20020;-65
2022/04/03 04:35:08;;;;;;;1.30;1.20;;;;;;;3.96;73.98;95413.25;5113444;28;20062;-65
2022/04/03 04:37:34;;;;;;;2.95;1.33;;;;;;;3.99;74.57;95414.91;5113192;28;20024;-64
2022/04/03 04:40:03;;;;;;;3.25;1.33;;;;;;;4.08;74.67;95403.41;5113205;28;20016;-65
2022/04/03 04:42:30;;;;;;;1.20;1.10;;;;;;;4.19;74.29;95395.34;5113106;28;20067;-65
2022/04/03 04:44:57;;;;;;;2.83;1.23;;;;;;;4.26;73.89;95405.47;5113202;28;20027;-65
2022/04/03 04:47:24;;;;;;;1.23;1.13;;;;;;;4.35;73.89;95399.13;5115347;28;20023;-65
2022/04/03 04:49:52;;;;;;;1.58;1.00;;;;;;;4.45;74.34;95404.88;5117199;28;20034;-64
2022/04/03 04:52:18;;;;;;;2.42;1.48;;;;;;;4.59;74.68;95403.56;5117155;28;20028;-65
2022/04/03 04:54:45;;;;;;;1.77;1.38;;;;;;;4.69;74.79;95397.19;5117185;28;20080;-65
2022/04/03 04:57:11;;;;;;;1.10;1.00;;;;;;;4.87;75.06;95397.47;5117091;27;20098;-65
2022/04/03 04:59:38;;;;;;;3.13;1.23;;;;;;;5.05;74.68;95407.22;5117021;28;20016;-65
2022/04/03 05:02:05;;;;;;;2.33;1.38;;;;;;;5.35;73.94;95398.44;5117047;28;20031;-65
2022/04/03 05:04:32;;;;;;;1.20;1.10;;;;;;;5.84;72.33;95399.31;5116901;28;20026;-65
2022/04/03 05:06:59;;;;;;;2.17;1.20;;;;;;;6.29;70.90;95397.63;5116838;28;20103;-65
2022/04/03 05:09:30;;;;;;;1.10;1.00;;;;;;;6.44;70.42;95401.34;5116758;28;20023;-65
2022/04/03 05:11:56;;;;;;;1.20;1.10;;;;;;;6.60;69.31;95403.34;5116597;28;20107;-65
2022/04/03 05:14:22;;;;;;;1.20;1.10;;;;;;;6.73;69.07;95409.75;5116749;28;20015;-65
2022/04/03 05:16:48;;;;;;;1.15;0.90;;;;;;;6.68;70.39;95417.72;5116727;28;20027;-65
2022/04/03 05:19:14;;;;;;;3.38;1.25;;;;;;;6.71;69.83;95414.16;5116783;28;20024;-65
2022/04/03 05:21:41;;;;;;;1.30;1.10;;;;;;;6.77;69.68;95407.88;5115915;28;20359;-65
2022/04/03 05:24:08;;;;;;;2.35;1.33;;;;;;;6.82;68.81;95406.78;5116500;28;20028;-64
2022/04/03 05:26:34;;;;;;;2.63;1.65;;;;;;;6.88;68.54;95413.47;5116305;28;20473;-65
2022/04/03 05:29:00;;;;;;;1.88;1.33;;;;;;;6.91;69.03;95412.50;5116423;28;20069;-65
2022/04/03 05:31:26;;;;;;;4.07;1.48;;;;;;;6.97;69.90;95419.19;5116436;28;20140;-65
2022/04/03 05:33:55;;;;;;;1.40;1.30;;;;;;;7.01;70.61;95419.00;5116386;28;20103;-65
2022/04/03 05:36:22;;;;;;;1.85;1.33;;;;;;;7.01;70.13;95425.97;5116275;28;20027;-65
2022/04/03 05:38:50;;;;;;;5.68;1.63;;;;;;;7.06;70.10;95424.00;5116309;28;20042;-65
2022/04/03 05:41:16;;;;;;;1.42;1.30;;;;;;;7.12;70.47;95420.31;5115934;28;20410;-65
2022/04/03 05:43:42;;;;;;;3.47;1.65;;;;;;;7.25;69.87;95428.44;5116105;28;20034;-65
2022/04/03 05:46:08;;;;;;;1.40;1.25;;;;;;;7.41;68.89;95439.03;5116007;28;20059;-65
2022/04/03 05:48:34;;;;;;;2.45;1.58;;;;;;;7.57;70.69;95442.69;5115977;28;20542;-65
2022/04/03 05:51:00;;;;;;;1.92;1.40;;;;;;;7.80;69.71;95446.00;5116070;28;20047;-65
2022/04/03 05:53:26;;;;;;;1.55;1.08;;;;;;;7.95;69.62;95443.66;5116077;28;20465;-65
2022/04/03 05:56:02;;;;;;;2.22;1.17;;;;;;;8.09;67.27;95449.06;5115964;27;20095;-65
2022/04/03 05:58:37;;;;;;;2.25;1.10;;;;;;;8.35;67.20;95456.59;5115664;28;20084;-65
2022/04/03 06:01:02;;;;;;;2.17;1.30;;;;;;;8.58;65.22;95457.31;5115792;28;20103;-65
2022/04/03 06:03:28;;;;;;;3.10;1.77;;;;;;;8.95;64.52;95459.91;5115879;28;20476;-65
2022/04/03 06:05:55;;;;;;;1.98;1.40;;;;;;;9.22;64.29;95454.25;5115789;28;20088;-65
2022/04/03 06:08:32;;;;;;;2.58;1.40;;;;;;;9.41;62.72;95459.38;5115726;28;20050;-65
2022/04/03 06:11:01;;;;;;;2.05;1.40;;;;;;;9.57;62.61;95464.66;5115661;28;20035;-65
2022/04/03 06:13:28;;;;;;;2.10;1.40;;;;;;;9.67;62.05;95464.19;5115560;28;20024;-65
2022/04/03 06:15:55;;;;;;;1.40;1.30;;;;;;;9.94;61.46;95471.53;5115576;28;20079;-65
2022/04/03 06:18:22;;;;;;;2.58;1.30;;;;;;;10.09;61.47;95472.47;5115611;28;20024;-65
2022/04/03 06:20:48;;;;;;;1.85;1.40;;;;;;;10.38;60.79;95472.69;5115545;28;20484;-65
2022/04/03 06:23:21;;;;;;;2.15;1.40;;;;;;;10.43;59.78;95475.91;5115361;27;20027;-65
2022/04/03 06:25:53;;;;;;;9.27;1.58;;;;;;;10.35;60.53;95481.53;5115256;28;20110;-65
2022/04/03 06:28:20;;;;;;;1.80;1.42;;;;;;;10.30;59.82;95480.91;5115288;28;20085;-65
2022/04/03 06:30:49;;;;;;;1.70;1.60;;;;;;;10.26;60.78;95482.03;5115184;28;20117;-65
2022/04/03 06:33:18;;;;;;;2.13;1.58;;;;;;;10.21;61.18;95484.88;5115162;28;20504;-65
2022/04/03 06:35:45;;;;;;;2.38;1.35;;;;;;;10.17;60.63;95487.75;5115016;28;20080;-64
2022/04/03 06:38:15;;;;;;;5.25;1.92;;;;;;;10.21;61.14;95491.91;5115085;28;20020;-64
2022/04/03 06:40:55;;;;;;;7.35;1.88;;;;;;;10.34;60.40;95490.31;5114993;28;20027;-65
2022/04/03 06:43:24;;;;;;;2.88;1.65;;;;;;;10.41;60.82;95500.44;5114864;28;20058;-65
2022/04/03 06:45:52;;;;;;;2.35;1.63;;;;;;;10.46;60.00;95498.44;5114968;28;20103;-65
2022/04/03 06:48:20;;;;;;;3.15;1.77;;;;;;;10.80;57.98;95503.56;5114664;28;20027;-65
2022/04/03 06:50:47;;;;;;;3.45;1.00;;;;;;;11.67;55.92;95503.06;5114946;28;20023;-65
2022/04/03 06:53:15;;;;;;;1.92;1.05;;;;;;;12.41;54.88;95502.19;5114541;28;20036;-65
2022/04/03 06:55:42;;;;;;;1.83;1.20;;;;;;;12.71;50.58;95509.94;5114812;28;20028;-65
2022/04/03 06:58:08;;;;;;;4.65;1.20;;;;;;;12.76;50.39;95515.72;5114766;28;20027;-65
2022/04/03 07:00:37;;;;;;;1.90;0.90;;;;;;;12.83;47.95;95520.59;5114661;28;20027;-65
2022/04/03 07:03:08;;;;;;;1.75;0.73;;;;;;;13.09;47.04;95533.81;5114587;28;20031;-65
2022/04/03 07:05:34;;;;;;;2.83;1.00;;;;;;;13.03;43.19;95537.69;5114638;28;20526;-65
2022/04/03 07:08:05;;;;;;;3.20;0.73;;;;;;;12.79;41.84;95535.69;5114550;28;20024;-65
2022/04/03 07:10:33;;;;;;;0.75;0.50;;;;;;;12.55;42.81;95535.47;5113877;28;20019;-66
2022/04/03 07:13:07;;;;;;;1.65;0.80;;;;;;;12.48;41.20;95534.97;5114414;28;20039;-65
2022/04/03 07:15:34;;;;;;;1.67;1.02;;;;;;;12.38;42.58;95550.44;5114437;28;20031;-65
2022/04/03 07:18:02;;;;;;;2.70;1.00;;;;;;;12.44;42.41;95542.22;5114380;28;20389;-65
2022/04/03 07:20:33;;;;;;;1.35;0.85;;;;;;;12.30;42.03;95547.44;5114301;28;20031;-65
2022/04/03 07:22:59;;;;;;;2.85;0.60;;;;;;;12.52;42.31;95557.44;5114312;28;20034;-65
2022/04/03 07:25:27;;;;;;;1.63;0.75;;;;;;;13.05;42.13;95553.34;5114078;28;20024;-65
2022/04/03 07:27:53;;;;;;;2.15;0.70;;;;;;;13.57;40.18;95553.59;5114197;28;20044;-65
2022/04/03 07:30:21;;;;;;;1.52;1.05;;;;;;;14.08;41.46;95558.06;5114028;28;20039;-65
2022/04/03 07:32:48;;;;;;;0.95;0.60;;;;;;;14.46;40.93;95556.41;5114167;27;20030;-65
2022/04/03 07:35:16;;;;;;;0.80;0.60;;;;;;;14.96;38.32;95547.69;5114060;28;20020;-65
2022/04/03 07:37:41;;;;;;;1.25;0.60;;;;;;;15.40;37.59;95550.69;5114109;28;20019;-65
2022/04/03 07:40:08;;;;;;;2.65;0.80;;;;;;;15.24;37.42;95566.78;5113929;28;20023;-65
2022/04/03 07:42:39;;;;;;;1.65;0.90;;;;;;;15.14;35.87;95563.97;5113717;28;20085;-65
2022/04/03 07:45:08;;;;;;;;;;;;;;;14.80;36.01;95568.16;5114372;28;20382;-65
2022/04/03 07:47:35;;;;;;;2.05;1.27;;;;;;;14.42;36.65;95580.38;5113820;28;19965;-65
2022/04/03 07:50:04;;;;;;;2.00;0.60;;;;;;;13.98;36.29;95575.41;5113891;28;20103;-65
2022/04/03 07:52:30;;;;;;;1.33;0.90;;;;;;;13.61;35.17;95569.03;5113874;28;20032;-65
2022/04/03 07:55:00;;;;;;;2.72;0.95;;;;;;;13.52;35.57;95565.22;5113809;28;20038;-66
2022/04/03 07:57:30;;;;;;;;;;;;;;;13.51;36.43;95560.91;5114261;28;20385;-65
2022/04/03 08:00:00;;;;;;;1.13;0.77;;;;;;;13.84;34.96;95573.69;5113681;28;19912;-66
2022/04/03 08:02:26;;;;;;;1.37;0.50;;;;;;;13.90;35.65;95566.25;5113652;28;20392;-65
2022/04/03 08:04:53;;;;;;;3.30;0.75;;;;;;;14.59;34.51;95563.41;5113647;28;20024;-65
2022/04/03 08:07:18;;;;;;;4.53;0.73;;;;;;;14.95;34.33;95558.31;5113449;28;20031;-65
2022/04/03 08:09:52;;;;;;;1.55;0.77;;;;;;;14.80;33.55;95576.91;5113630;28;20358;-65
2022/04/03 08:12:18;;;;;;;2.30;0.70;;;;;;;14.91;33.35;95576.97;5113586;28;20038;-65
2022/04/03 08:14:44;;;;;;;3.10;0.75;;;;;;;15.46;33.64;95580.16;5113485;28;20023;-65
2022/04/03 08:17:15;;;;;;;2.92;0.80;;;;;;;15.58;31.99;95562.63;5112867;28;20028;-66
2022/04/03 08:19:43;;;;;;;2.58;0.52;;;;;;;15.28;30.71;95565.59;5113478;28;20028;-66
2022/04/03 08:22:09;;;;;;;1.42;0.80;;;;;;;15.14;31.01;95577.13;5115400;28;20491;-66
2022/04/03 08:24:37;;;;;;;0.98;0.77;;;;;;;14.97;31.20;95575.72;5117635;28;20016;-66
2022/04/03 08:27:06;;;;;;;2.70;0.70;;;;;;;15.33;32.98;95569.69;5117631;28;20373;-67
2022/04/03 08:29:35;;;;;;;0.65;0.50;;;;;;;15.63;32.22;95558.69;5117904;28;20023;-66
2022/04/03 08:32:03;;;;;;;0.55;0.50;;;;;;;16.08;30.89;95565.09;5117698;28;20461;-66
2022/04/03 08:34:29;;;;;;;1.17;0.70;;;;;;;16.41;30.66;95565.28;5117695;28;20118;-66
2022/04/03 08:36:57;;;;;;;3.10;0.80;;;;;;;16.57;30.20;95572.00;5117451;28;20032;-66
2022/04/03 08:39:23;;;;;;;4.43;0.85;;;;;;;16.36;30.08;95567.41;5117368;28;20116;-65
2022/04/03 08:41:49;;;;;;;2.67;1.30;;;;;;;15.88;30.48;95577.97;5116877;28;20047;-66
2022/04/03 08:44:15;;;;;;;3.55;1.13;;;;;;;15.72;30.89;95575.63;5117438;28;20126;-66
2022/04/03 08:46:47;;;;;;;2.22;0.88;;;;;;;15.54;29.95;95578.66;5117368;28;20063;-66
2022/04/03 08:49:15;;;;;;;1.33;1.00;;;;;;;15.45;30.88;95583.75;5117249;28;20031;-66
2022/04/03 08:51:41;;;;;;;1.13;0.98;;;;;;;15.10;33.90;95583.56;5117217;28;20019;-66
2022/04/03 08:54:08;;;;;;;1.95;1.00;;;;;;;15.13;31.10;95575.47;5117234;28;20030;-66
2022/04/03 08:56:34;;;;;;;0.90;0.50;;;;;;;14.61;29.98;95588.69;5117133;28;20016;-65
2022/04/03 08:59:03;;;;;;;5.22;0.90;;;;;;;14.17;31.09;95606.56;5117173;28;20488;-65
2022/04/03 09:01:30;;;;;;;0.60;0.43;;;;;;;13.70;34.55;95599.09;5116854;28;20088;-65
2022/04/03 09:03:58;;;;;;;0.70;0.70;;;;;;;13.74;39.22;95600.59;5117025;27;20473;-65
2022/04/03 09:06:24;;;;;;;1.20;0.73;;;;;;;14.32;36.24;95607.31;5116849;28;20030;-65
2022/04/03 09:08:50;;;;;;;2.90;0.80;;;;;;;14.81;35.97;95606.72;5116909;28;20024;-65
2022/04/03 09:11:18;;;;;;;0.70;0.70;;;;;;;14.77;33.53;95603.41;5116887;28;20020;-65
2022/04/03 09:13:45;;;;;;;0.63;0.60;;;;;;;14.59;34.57;95605.53;5116756;28;20118;-65
2022/04/03 09:16:14;;;;;;;0.95;0.70;;;;;;;14.51;32.76;95598.19;5116790;27;20030;-65
2022/04/03 09:18:51;;;;;;;2.05;0.70;;;;;;;14.88;33.22;95605.31;5116720;28;20035;-65
2022/04/03 09:21:24;;;;;;;1.88;0.80;;;;;;;15.27;31.28;95592.88;5116805;27;20036;-65
2022/04/03 09:24:11;;;;;;;1.40;0.68;;;;;;;15.23;30.72;95594.06;5116447;28;20035;-65
2022/04/03 09:26:40;;;;;;;2.70;0.80;;;;;;;15.31;31.93;95596.16;5116697;28;20043;-65
2022/04/03 09:29:12;;;;;;;3.17;0.77;;;;;;;15.61;31.34;95601.94;5116581;28;20525;-66
2022/04/03 09:31:41;;;;;;;0.50;0.50;;;;;;;16.09;32.76;95600.22;5116547;28;20028;-65
2022/04/03 09:34:15;;;;;;;0.68;0.63;;;;;;;16.37;31.18;95603.38;5116028;28;20039;-65
2022/04/03 09:36:42;;;;;;;0.70;0.70;;;;;;;16.59;30.75;95599.13;5116387;27;20039;-66
2022/04/03 09:39:16;;;;;;;2.85;0.63;;;;;;;16.74;30.90;95600.56;5116410;28;20429;-65
2022/04/03 09:42:05;;;;;;;0.60;0.60;;;;;;;16.68;30.21;95593.94;5116125;28;20039;-66
2022/04/03 09:44:39;;;;;;;0.35;0.35;;;;;;;16.62;30.04;95597.06;5096467;28;20039;-65
2022/04/03 09:47:15;;;;;;;1.85;0.50;;;;;;;16.75;30.50;95601.41;5116127;28;20076;-65
2022/04/03 09:49:44;;;;;;;2.42;0.65;;;;;;;16.82;30.03;95601.78;5116178;28;20088;-65
2022/04/03 09:52:31;;;;;;;0.70;0.65;;;;;;;16.93;31.51;95599.97;5116154;27;20019;-65
2022/04/03 09:54:57;;;;;;;0.55;0.55;;;;;;;17.29;30.63;95601.63;5108351;28;20069;-66
2022/04/03 09:57:24;;;;;;;0.93;0.70;;;;;;;17.26;26.39;95599.22;5116034;28;20023;-65
2022/04/03 09:59:57;;;;;;;1.27;0.82;;;;;;;16.94;27.89;95606.06;5115964;28;20023;-65
2022/04/03 10:02:24;;;;;;;1.08;0.63;;;;;;;16.66;27.07;95611.72;5114812;28;20034;-65
2022/04/03 10:04:52;;;;;;;1.27;0.70;;;;;;;16.64;28.94;95618.91;5115687;28;20387;-65
2022/04/03 10:07:20;;;;;;;1.67;0.73;;;;;;;16.38;27.14;95610.38;5115610;27;20035;-66
2022/04/03 10:09:49;;;;;;;0.50;0.50;;;;;;;16.03;26.82;95615.56;5115823;28;20016;-65
2022/04/03 10:12:22;;;;;;;1.15;0.77;;;;;;;15.92;26.12;95615.47;5115762;28;20015;-65
2022/04/03 10:14:53;;;;;;;3.03;1.10;;;;;;;15.71;27.20;95625.84;5114296;28;20023;-65
2022/04/03 10:17:21;;;;;;;2.67;0.68;;;;;;;15.77;28.10;95617.44;5115659;28;20023;-65
2022/04/03 10:19:46;;;;;;;2.92;1.15;;;;;;;15.82;27.65;95609.19;5115476;28;20027;-65
2022/04/03 10:22:29;;;;;;;0.70;0.70;;;;;;;15.53;27.63;95619.16;5115635;28;20028;-65
2022/04/03 10:25:04;;;;;;;0.65;0.65;;;;;;;15.48;31.92;95625.72;5115484;28;20027;-65
2022/04/03 10:27:37;;;;;;;0.57;0.50;;;;;;;15.62;30.44;95630.00;5115283;28;20032;-65
2022/04/03 10:30:05;;;;;;;1.95;0.88;;;;;;;15.99;30.97;95623.81;5115289;28;20042;-65
2022/04/03 10:32:35;;;;;;;1.05;0.68;;;;;;;16.33;31.28;95629.19;5115227;28;20065;-65
2022/04/03 10:35:07;;;;;;;4.03;0.68;;;;;;;16.50;31.84;95609.41;5115469;28;20465;-66
2022/04/03 10:37:37;;;;;;;1.00;0.65;;;;;;;16.57;31.28;95620.34;5115155;28;20031;-66
2022/04/03 10:40:09;;;;;;;0.57;0.57;;;;;;;16.53;31.93;95621.56;5115045;28;20023;-65
2022/04/03 10:43:05;;;;;;;2.28;0.80;;;;;;;16.97;30.51;95623.47;5114966;27;20043;-66
2022/04/03 10:45:44;;;;;;;2.05;0.80;;;;;;;17.34;28.72;95630.34;5114187;28;20115;-65
2022/04/03 10:48:22;;;;;;;1.25;0.55;;;;;;;17.53;27.66;95633.19;5115009;28;20020;-65
2022/04/03 10:51:11;;;;;;;0.82;0.57;;;;;;;17.64;26.88;95637.59;5115002;28;20011;-65
2022/04/03 10:53:48;;;;;;;1.30;0.93;;;;;;;17.61;26.80;95652.88;5115144;27;20023;-65
2022/04/03 10:56:29;;;;;;;0.70;0.70;;;;;;;16.93;26.43;95660.72;5114900;28;20047;-65
2022/04/03 10:58:56;;;;;;;;;;;;;;;16.67;26.20;95653.00;5115203;28;20036;-65
2022/04/03 11:01:29;;;;;;;2.47;0.63;;;;;;;16.37;28.64;95653.53;5114741;28;20019;-66
2022/04/03 11:03:57;;;;;;;0.88;0.80;;;;;;;16.18;28.78;95654.94;5114595;28;20032;-65
2022/04/03 11:06:26;;;;;;;1.02;0.80;;;;;;;16.08;27.76;95653.94;5114507;28;20032;-66
2022/04/03 11:08:55;;;;;;;1.35;0.65;;;;;;;15.80;26.72;95659.41;5114583;28;20015;-66
2022/04/03 11:11:38;;;;;;;2.13;0.70;;;;;;;15.74;28.11;95662.53;5114423;28;20026;-66
2022/04/03 11:14:08;;;;;;;1.27;0.80;;;;;;;15.67;28.02;95643.66;5114458;28;20299;-66
2022/04/03 11:16:57;;;;;;;2.50;1.27;;;;;;;15.65;28.06;95648.19;5114372;28;20027;-66
2022/04/03 11:19:57;;;;;;;0.90;0.70;;;;;;;15.65;27.69;95659.59;5114319;28;20027;-66
2022/04/03 11:22:23;;;;;;;1.75;0.90;;;;;;;15.47;28.60;95660.94;5114119;28;20039;-66
2022/04/03 11:24:51;;;;;;;0.85;0.68;;;;;;;15.21;29.56;95671.53;5114283;27;20020;-66
2022/04/03 11:27:18;;;;;;;0.88;0.63;;;;;;;14.95;29.05;95669.75;5114156;28;20027;-66
2022/04/03 11:29:45;;;;;;;1.00;0.63;;;;;;;14.88;31.25;95666.72;5114182;28;20028;-66
2022/04/03 11:32:12;;;;;;;1.70;0.90;;;;;;;14.76;31.02;95657.84;5114110;28;20023;-65
2022/04/03 11:34:39;;;;;;;6.78;1.10;;;;;;;14.63;30.04;95663.09;5114130;28;20096;-65
2022/04/03 11:37:10;;;;;;;5.78;0.85;;;;;;;14.63;30.80;95652.56;5113883;28;20107;-65
2022/04/03 11:39:38;;;;;;;0.85;0.68;;;;;;;14.77;29.42;95656.91;5114119;28;20028;-65
2022/04/03 11:42:08;;;;;;;3.72;0.63;;;;;;;14.88;29.61;95642.19;5113659;28;20036;-66
2022/04/03 11:44:35;;;;;;;2.58;0.80;;;;;;;14.93;30.84;95657.66;5113981;28;20027;-66